createdAt,value
2018-12-03T00:00:27.341Z,1014.40
2018-12-03T00:02:21.038Z,1014.40
2018-12-03T00:03:20.227Z,1014.39
2018-12-03T00:05:13.146Z,1014.42
2018-12-03T00:06:13.157Z,1014.44
2018-12-03T00:08:06.804Z,1014.52
2018-12-03T00:09:06.095Z,1014.53
2018-12-03T00:10:59.581Z,1014.58
2018-12-03T00:11:59.045Z,1014.58
2018-12-03T00:13:52.219Z,1014.61
2018-12-03T00:14:51.986Z,1014.65
2018-12-03T00:16:45.455Z,1014.66
2018-12-03T00:17:44.898Z,1014.65
2018-12-03T00:19:37.962Z,1014.66
2018-12-03T00:20:37.828Z,1014.67
2018-12-03T00:22:30.742Z,1014.67
2018-12-03T00:23:30.757Z,1014.67
2018-12-03T00:25:23.755Z,1014.74
2018-12-03T00:26:23.677Z,1014.72
2018-12-03T00:28:16.590Z,1014.78
2018-12-03T00:29:16.599Z,1014.78
2018-12-03T00:31:09.778Z,1014.80
2018-12-03T00:32:09.532Z,1014.81
2018-12-03T00:34:02.446Z,1014.84
2018-12-03T00:35:02.459Z,1014.88
2018-12-03T00:36:58.528Z,1014.93
2018-12-03T00:37:55.386Z,1014.94
2018-12-03T00:39:48.300Z,1014.98
2018-12-03T00:40:48.312Z,1014.99
2018-12-03T00:42:45.945Z,1014.99
2018-12-03T00:43:41.238Z,1014.94
2018-12-03T00:45:34.150Z,1014.96
2018-12-03T00:46:34.161Z,1015.02
2018-12-03T00:48:27.349Z,1015.02
2018-12-03T00:49:27.088Z,1015.03
2018-12-03T00:51:20.003Z,1015.13
2018-12-03T00:52:20.017Z,1015.13
2018-12-03T00:54:13.187Z,1015.17
2018-12-03T00:55:12.944Z,1015.16
2018-12-03T00:57:05.852Z,1015.21
2018-12-03T00:58:05.867Z,1015.21
2018-12-03T00:59:59.049Z,1015.23
2018-12-03T01:00:58.789Z,1015.25
2018-12-03T01:02:51.708Z,1015.31
2018-12-03T01:03:51.722Z,1015.38
2018-12-03T01:05:44.892Z,1015.35
2018-12-03T01:06:44.646Z,1015.39
2018-12-03T01:08:37.566Z,1015.37
2018-12-03T01:09:37.571Z,1015.40
2018-12-03T01:11:30.741Z,1015.46
2018-12-03T01:12:30.499Z,1015.47
2018-12-03T01:14:23.478Z,1015.52
2018-12-03T01:15:23.472Z,1015.49
2018-12-03T01:17:16.597Z,1015.51
2018-12-03T01:18:16.401Z,1015.51
2018-12-03T01:20:09.313Z,1015.49
2018-12-03T01:21:09.322Z,1015.53
2018-12-03T01:23:02.500Z,1015.60
2018-12-03T01:24:02.254Z,1015.60
2018-12-03T01:25:55.171Z,1015.60
2018-12-03T01:26:55.181Z,1015.56
2018-12-03T01:28:48.171Z,1015.53
2018-12-03T01:29:48.110Z,1015.50
2018-12-03T01:31:41.020Z,1015.51
2018-12-03T01:32:41.036Z,1015.52
2018-12-03T01:34:34.208Z,1015.55
2018-12-03T01:35:33.964Z,1015.56
2018-12-03T01:37:26.885Z,1015.55
2018-12-03T01:38:26.894Z,1015.55
2018-12-03T01:40:34.859Z,1015.57
2018-12-03T01:41:19.819Z,1015.59
2018-12-03T01:43:12.734Z,1015.67
2018-12-03T01:44:12.747Z,1015.69
2018-12-03T01:46:05.930Z,1015.69
2018-12-03T01:47:05.679Z,1015.70
2018-12-03T01:48:58.595Z,1015.75
2018-12-03T01:49:58.606Z,1015.76
2018-12-03T01:51:53.276Z,1015.76
2018-12-03T01:52:51.539Z,1015.79
2018-12-03T01:54:44.448Z,1015.80
2018-12-03T01:55:44.461Z,1015.81
2018-12-03T01:57:37.634Z,1015.85
2018-12-03T01:58:37.391Z,1015.84
2018-12-03T02:00:30.312Z,1015.89
2018-12-03T02:01:30.326Z,1015.91
2018-12-03T02:03:24.291Z,1015.94
2018-12-03T02:04:23.259Z,1015.95
2018-12-03T02:06:16.174Z,1015.98
2018-12-03T02:07:16.184Z,1015.94
2018-12-03T02:09:09.243Z,1016.02
2018-12-03T02:10:09.112Z,1015.98
2018-12-03T02:12:02.042Z,1015.97
2018-12-03T02:13:02.044Z,1016.04
2018-12-03T02:14:55.139Z,1015.96
2018-12-03T02:15:54.971Z,1015.98
2018-12-03T02:17:47.891Z,1015.95
2018-12-03T02:18:47.904Z,1016.00
2018-12-03T02:20:41.082Z,1015.98
2018-12-03T02:21:40.829Z,1016.03
2018-12-03T02:23:33.748Z,1016.00
2018-12-03T02:24:33.762Z,1015.97
2018-12-03T02:26:27.725Z,1015.99
2018-12-03T02:27:26.697Z,1016.01
2018-12-03T02:29:19.610Z,1016.02
2018-12-03T02:30:19.635Z,1016.06
2018-12-03T02:32:12.697Z,1016.08
2018-12-03T02:33:12.568Z,1016.09
2018-12-03T02:35:05.479Z,1016.06
2018-12-03T02:36:05.486Z,1016.05
2018-12-03T02:37:59.454Z,1016.05
2018-12-03T02:38:58.414Z,1016.04
2018-12-03T02:40:51.335Z,1016.06
2018-12-03T02:41:51.355Z,1016.05
2018-12-03T02:43:44.542Z,1016.09
2018-12-03T02:44:44.285Z,1016.07
2018-12-03T02:46:37.197Z,1016.12
2018-12-03T02:47:37.212Z,1016.09
2018-12-03T02:49:30.289Z,1016.05
2018-12-03T02:50:30.139Z,1016.01
2018-12-03T02:52:23.056Z,1016.02
2018-12-03T02:53:23.067Z,1016.02
2018-12-03T02:55:16.242Z,1015.97
2018-12-03T02:56:16.001Z,1015.99
2018-12-03T02:58:08.947Z,1015.89
2018-12-03T02:59:08.960Z,1015.89
2018-12-03T03:01:01.956Z,1015.88
2018-12-03T03:02:01.889Z,1015.86
2018-12-03T03:03:54.807Z,1015.83
2018-12-03T03:04:54.818Z,1015.78
2018-12-03T03:06:48.784Z,1015.78
2018-12-03T03:07:47.747Z,1015.74
2018-12-03T03:09:40.667Z,1015.75
2018-12-03T03:10:40.677Z,1015.72
2018-12-03T03:12:33.852Z,1015.68
2018-12-03T03:13:33.611Z,1015.70
2018-12-03T03:15:26.525Z,1015.72
2018-12-03T03:16:26.537Z,1015.66
2018-12-03T03:18:56.177Z,1015.65
2018-12-03T03:19:19.465Z,1015.63
2018-12-03T03:21:12.378Z,1015.62
2018-12-03T03:22:12.395Z,1015.57
2018-12-03T03:24:29.631Z,1015.56
2018-12-03T03:25:05.328Z,1015.54
2018-12-03T03:26:58.251Z,1015.54
2018-12-03T03:27:58.262Z,1015.53
2018-12-03T03:29:51.442Z,1015.52
2018-12-03T03:30:51.303Z,1015.50
2018-12-03T03:32:44.119Z,1015.47
2018-12-03T03:33:44.130Z,1015.44
2018-12-03T03:35:37.304Z,1015.43
2018-12-03T03:36:37.060Z,1015.41
2018-12-03T03:38:29.995Z,1015.39
2018-12-03T03:39:30.008Z,1015.40
2018-12-03T03:41:41.151Z,1015.42
2018-12-03T03:42:22.937Z,1015.36
2018-12-03T03:44:15.856Z,1015.39
2018-12-03T03:45:15.889Z,1015.32
2018-12-03T03:47:08.863Z,1015.33
2018-12-03T03:48:08.799Z,1015.30
2018-12-03T03:50:01.727Z,1015.25
2018-12-03T03:51:01.736Z,1015.22
2018-12-03T03:52:54.808Z,1015.22
2018-12-03T03:53:54.668Z,1015.20
2018-12-03T03:55:47.582Z,1015.20
2018-12-03T03:56:47.600Z,1015.19
2018-12-03T03:58:40.666Z,1015.18
2018-12-03T03:59:40.528Z,1015.18
2018-12-03T04:01:33.466Z,1015.10
2018-12-03T04:02:33.455Z,1015.10
2018-12-03T04:04:26.635Z,1015.10
2018-12-03T04:05:26.384Z,1015.07
2018-12-03T04:07:19.304Z,1015.01
2018-12-03T04:08:19.321Z,1014.99
2018-12-03T04:10:12.409Z,1014.90
2018-12-03T04:11:12.247Z,1014.90
2018-12-03T04:13:05.171Z,1014.87
2018-12-03T04:14:05.184Z,1014.81
2018-12-03T04:15:58.363Z,1014.77
2018-12-03T04:16:58.117Z,1014.75
2018-12-03T04:18:51.032Z,1014.71
2018-12-03T04:19:51.049Z,1014.73
2018-12-03T04:21:44.229Z,1014.72
2018-12-03T04:22:43.978Z,1014.69
2018-12-03T04:24:36.895Z,1014.69
2018-12-03T04:25:36.914Z,1014.64
2018-12-03T04:27:38.282Z,1014.60
2018-12-03T04:28:29.870Z,1014.62
2018-12-03T04:30:23.331Z,1014.58
2018-12-03T04:31:22.798Z,1014.58
2018-12-03T04:33:15.924Z,1014.55
2018-12-03T04:34:15.772Z,1014.53
2018-12-03T04:36:08.691Z,1014.49
2018-12-03T04:37:08.712Z,1014.45
2018-12-03T04:39:01.886Z,1014.44
2018-12-03T04:40:01.640Z,1014.43
2018-12-03T04:41:54.606Z,1014.42
2018-12-03T04:42:54.582Z,1014.40
2018-12-03T04:44:47.660Z,1014.42
2018-12-03T04:45:47.513Z,1014.37
2018-12-03T04:47:40.439Z,1014.37
2018-12-03T04:48:40.451Z,1014.36
2018-12-03T04:50:33.541Z,1014.28
2018-12-03T04:51:33.385Z,1014.28
2018-12-03T04:53:26.302Z,1014.23
2018-12-03T04:54:26.319Z,1014.21
2018-12-03T04:56:20.285Z,1014.18
2018-12-03T04:57:19.256Z,1014.15
2018-12-03T04:59:12.174Z,1014.17
2018-12-03T05:00:12.187Z,1014.12
2018-12-03T05:02:05.359Z,1014.06
2018-12-03T05:03:05.117Z,1014.04
2018-12-03T05:04:58.032Z,1014.02
2018-12-03T05:05:58.047Z,1014.02
2018-12-03T05:07:51.132Z,1013.97
2018-12-03T05:08:50.980Z,1014.00
2018-12-03T05:10:43.916Z,1013.96
2018-12-03T05:11:43.930Z,1013.94
2018-12-03T05:14:04.089Z,1013.94
2018-12-03T05:14:36.864Z,1013.91
2018-12-03T05:16:29.781Z,1013.88
2018-12-03T05:17:29.794Z,1013.90
2018-12-03T05:19:22.972Z,1013.83
2018-12-03T05:20:22.727Z,1013.81
2018-12-03T05:22:15.650Z,1013.77
2018-12-03T05:23:15.662Z,1013.76
2018-12-03T05:25:08.751Z,1013.74
2018-12-03T05:26:08.590Z,1013.69
2018-12-03T05:28:01.512Z,1013.73
2018-12-03T05:29:01.525Z,1013.66
2018-12-03T05:30:54.534Z,1013.64
2018-12-03T05:31:54.467Z,1013.63
2018-12-03T05:33:47.384Z,1013.54
2018-12-03T05:34:47.400Z,1013.55
2018-12-03T05:36:40.489Z,1013.47
2018-12-03T05:37:40.339Z,1013.44
2018-12-03T05:39:33.251Z,1013.39
2018-12-03T05:40:33.272Z,1013.36
2018-12-03T05:42:26.446Z,1013.24
2018-12-03T05:43:26.295Z,1013.16
2018-12-03T05:45:19.301Z,1013.14
2018-12-03T05:46:19.307Z,1013.10
2018-12-03T05:48:12.507Z,1013.04
2018-12-03T05:49:12.245Z,1013.02
2018-12-03T05:51:05.165Z,1012.97
2018-12-03T05:52:05.181Z,1012.95
2018-12-03T05:53:58.271Z,1012.93
2018-12-03T05:54:58.115Z,1012.90
2018-12-03T05:56:51.033Z,1012.85
2018-12-03T05:57:51.052Z,1012.83
2018-12-03T05:59:44.227Z,1012.77
2018-12-03T06:00:43.979Z,1012.76
2018-12-03T06:02:36.896Z,1012.74
2018-12-03T06:03:36.908Z,1012.73
2018-12-03T06:05:30.093Z,1012.70
2018-12-03T06:06:29.848Z,1012.70
2018-12-03T06:08:22.775Z,1012.73
2018-12-03T06:09:22.839Z,1012.71
2018-12-03T06:11:15.970Z,1012.63
2018-12-03T06:12:15.723Z,1012.65
2018-12-03T06:14:08.730Z,1012.61
2018-12-03T06:15:08.653Z,1012.61
2018-12-03T06:17:02.621Z,1012.59
2018-12-03T06:18:01.592Z,1012.55
2018-12-03T06:19:54.523Z,1012.52
2018-12-03T06:20:54.525Z,1012.48
2018-12-03T06:22:47.524Z,1012.44
2018-12-03T06:23:47.463Z,1012.41
2018-12-03T06:25:40.386Z,1012.36
2018-12-03T06:26:40.418Z,1012.37
2018-12-03T06:28:33.645Z,1012.32
2018-12-03T06:29:33.400Z,1012.33
2018-12-03T06:31:26.318Z,1012.28
2018-12-03T06:32:26.333Z,1012.25
2018-12-03T06:34:20.829Z,1012.23
2018-12-03T06:35:20.584Z,1012.22
2018-12-03T06:37:13.501Z,1012.16
2018-12-03T06:38:15.529Z,1012.15
2018-12-03T06:40:06.695Z,1012.13
2018-12-03T06:41:06.446Z,1012.06
2018-12-03T06:42:59.441Z,1012.07
2018-12-03T06:43:59.384Z,1012.09
2018-12-03T06:45:52.479Z,1012.08
2018-12-03T06:46:52.315Z,1012.03
2018-12-03T06:48:45.229Z,1012.01
2018-12-03T06:49:45.245Z,1011.99
2018-12-03T06:51:38.496Z,1011.99
2018-12-03T06:52:38.247Z,1011.95
2018-12-03T06:54:31.169Z,1011.92
2018-12-03T06:55:31.197Z,1011.92
2018-12-03T06:57:24.269Z,1011.93
2018-12-03T06:58:24.113Z,1011.92
2018-12-03T07:00:17.035Z,1011.92
2018-12-03T07:01:17.047Z,1011.94
2018-12-03T07:03:10.149Z,1011.88
2018-12-03T07:04:09.980Z,1011.95
2018-12-03T07:06:02.904Z,1011.94
2018-12-03T07:07:02.922Z,1011.94
2018-12-03T07:08:56.094Z,1011.96
2018-12-03T07:09:55.855Z,1011.94
2018-12-03T07:11:48.788Z,1011.88
2018-12-03T07:12:48.802Z,1011.84
2018-12-03T07:14:41.998Z,1011.83
2018-12-03T07:15:41.737Z,1011.80
2018-12-03T07:17:34.668Z,1011.81
2018-12-03T07:18:34.691Z,1011.78
2018-12-03T07:20:46.241Z,1011.73
2018-12-03T07:21:27.629Z,1011.73
2018-12-03T07:23:20.573Z,1011.71
2018-12-03T07:24:20.557Z,1011.76
2018-12-03T07:26:13.766Z,1011.78
2018-12-03T07:27:13.488Z,1011.75
2018-12-03T07:29:06.406Z,1011.72
2018-12-03T07:30:06.425Z,1011.69
2018-12-03T07:31:59.508Z,1011.70
2018-12-03T07:32:59.355Z,1011.72
2018-12-03T07:34:52.270Z,1011.70
2018-12-03T07:35:52.285Z,1011.70
2018-12-03T07:37:45.372Z,1011.68
2018-12-03T07:38:45.223Z,1011.69
2018-12-03T07:40:38.705Z,1011.65
2018-12-03T07:41:38.159Z,1011.62
2018-12-03T07:43:31.340Z,1011.60
2018-12-03T07:44:31.095Z,1011.58
2018-12-03T07:46:24.013Z,1011.57
2018-12-03T07:47:24.028Z,1011.54
2018-12-03T07:49:17.114Z,1011.54
2018-12-03T07:50:16.960Z,1011.55
2018-12-03T07:52:09.881Z,1011.56
2018-12-03T07:53:09.894Z,1011.57
2018-12-03T07:55:02.883Z,1011.58
2018-12-03T07:56:02.824Z,1011.64
2018-12-03T07:57:55.745Z,1011.60
2018-12-03T07:58:55.759Z,1011.58
2018-12-03T08:00:48.951Z,1011.53
2018-12-03T08:01:48.695Z,1011.51
2018-12-03T08:03:41.619Z,1011.54
2018-12-03T08:04:41.638Z,1011.53
2018-12-03T08:06:34.787Z,1011.52
2018-12-03T08:07:34.613Z,1011.53
2018-12-03T08:09:27.490Z,1011.52
2018-12-03T08:10:27.504Z,1011.51
2018-12-03T08:12:20.502Z,1011.49
2018-12-03T08:13:20.439Z,1011.52
2018-12-03T08:15:13.368Z,1011.54
2018-12-03T08:16:13.375Z,1011.52
2018-12-03T08:18:07.348Z,1011.53
2018-12-03T08:19:06.312Z,1011.53
2018-12-03T08:20:59.236Z,1011.51
2018-12-03T08:21:59.247Z,1011.53
2018-12-03T08:23:52.243Z,1011.53
2018-12-03T08:24:52.186Z,1011.57
2018-12-03T08:26:45.309Z,1011.56
2018-12-03T08:27:45.115Z,1011.59
2018-12-03T08:29:38.036Z,1011.61
2018-12-03T08:30:38.061Z,1011.61
2018-12-03T08:32:32.020Z,1011.62
2018-12-03T08:33:30.995Z,1011.60
2018-12-03T08:35:23.946Z,1011.58
2018-12-03T08:36:23.920Z,1011.58
2018-12-03T08:38:16.911Z,1011.60
2018-12-03T08:39:16.856Z,1011.57
2018-12-03T08:41:09.773Z,1011.60
2018-12-03T08:42:09.784Z,1011.61
2018-12-03T08:44:02.899Z,1011.62
2018-12-03T08:45:02.771Z,1011.61
2018-12-03T08:46:55.688Z,1011.64
2018-12-03T08:47:55.704Z,1011.62
2018-12-03T08:49:48.715Z,1011.61
2018-12-03T08:50:48.639Z,1011.59
2018-12-03T08:52:41.561Z,1011.63
2018-12-03T08:53:41.587Z,1011.66
2018-12-03T08:55:35.807Z,1011.62
2018-12-03T08:56:34.500Z,1011.65
2018-12-03T08:58:27.982Z,1011.64
2018-12-03T08:59:27.436Z,1011.65
2018-12-03T09:01:23.100Z,1011.68
2018-12-03T09:02:20.372Z,1011.69
2018-12-03T09:04:14.335Z,1011.67
2018-12-03T09:05:13.312Z,1011.64
2018-12-03T09:07:06.233Z,1011.61
2018-12-03T09:08:06.245Z,1011.64
2018-12-03T09:09:59.461Z,1011.65
2018-12-03T09:10:59.209Z,1011.66
2018-12-03T09:12:52.124Z,1011.67
2018-12-03T09:13:52.140Z,1011.72
2018-12-03T09:15:45.317Z,1011.68
2018-12-03T09:16:45.077Z,1011.70
2018-12-03T09:18:37.991Z,1011.63
2018-12-03T09:19:38.000Z,1011.65
2018-12-03T09:23:02.861Z,1011.68
2018-12-03T09:24:02.547Z,1011.71
2018-12-03T09:25:55.487Z,1011.75
2018-12-03T09:26:55.485Z,1011.74
2018-12-03T09:28:48.661Z,1011.76
2018-12-03T09:29:48.445Z,1011.75
2018-12-03T09:31:41.907Z,1011.80
2018-12-03T09:32:41.351Z,1011.80
2018-12-03T09:34:34.413Z,1011.82
2018-12-03T09:35:34.288Z,1011.76
2018-12-03T09:37:27.208Z,1011.80
2018-12-03T09:38:27.220Z,1011.82
2018-12-03T09:40:20.215Z,1011.85
2018-12-03T09:41:20.152Z,1011.84
2018-12-03T09:43:13.104Z,1011.86
2018-12-03T09:44:13.106Z,1011.87
2018-12-03T09:46:07.124Z,1011.89
2018-12-03T09:47:07.040Z,1011.90
2018-12-03T09:48:59.966Z,1011.96
2018-12-03T09:49:59.981Z,1011.95
2018-12-03T09:51:53.048Z,1011.95
2018-12-03T09:52:52.914Z,1012.04
2018-12-03T09:54:46.389Z,1012.05
2018-12-03T09:55:45.846Z,1012.04
2018-12-03T09:57:38.842Z,1012.11
2018-12-03T09:58:38.779Z,1012.14
2018-12-03T10:00:31.703Z,1012.13
2018-12-03T10:01:31.714Z,1012.16
2018-12-03T10:03:24.709Z,1012.19
2018-12-03T10:04:24.653Z,1012.22
2018-12-03T10:06:17.565Z,1012.25
2018-12-03T10:07:17.591Z,1012.25
2018-12-03T10:09:10.677Z,1012.26
2018-12-03T10:10:10.512Z,1012.28
2018-12-03T10:12:03.433Z,1012.31
2018-12-03T10:13:03.445Z,1012.29
2018-12-03T10:14:56.645Z,1012.30
2018-12-03T10:15:56.412Z,1012.31
2018-12-03T10:17:49.517Z,1012.31
2018-12-03T10:18:49.311Z,1012.33
2018-12-03T10:20:42.358Z,1012.38
2018-12-03T10:21:42.247Z,1012.38
2018-12-03T10:23:36.221Z,1012.37
2018-12-03T10:24:35.190Z,1012.42
2018-12-03T10:26:28.113Z,1012.40
2018-12-03T10:27:28.119Z,1012.39
2018-12-03T10:29:21.099Z,1012.45
2018-12-03T10:30:21.051Z,1012.49
2018-12-03T10:32:13.962Z,1012.50
2018-12-03T10:33:13.975Z,1012.54
2018-12-03T10:35:07.941Z,1012.55
2018-12-03T10:36:06.915Z,1012.62
2018-12-03T10:37:59.827Z,1012.63
2018-12-03T10:38:59.841Z,1012.63
2018-12-03T10:40:52.831Z,1012.61
2018-12-03T10:41:52.772Z,1012.65
2018-12-03T10:43:45.695Z,1012.65
2018-12-03T10:44:45.715Z,1012.71
2018-12-03T10:46:38.696Z,1012.72
2018-12-03T10:47:38.638Z,1012.68
2018-12-03T10:49:32.114Z,1012.72
2018-12-03T10:50:31.567Z,1012.77
2018-12-03T10:52:24.645Z,1012.80
2018-12-03T10:53:24.509Z,1012.86
2018-12-03T10:55:17.422Z,1012.88
2018-12-03T10:56:17.436Z,1012.94
2018-12-03T10:58:10.437Z,1013.02
2018-12-03T10:59:10.370Z,1012.96
2018-12-03T11:01:03.288Z,1013.00
2018-12-03T11:02:03.304Z,1013.04
2018-12-03T11:03:56.309Z,1013.01
2018-12-03T11:04:56.246Z,1013.04
2018-12-03T11:06:49.166Z,1013.06
2018-12-03T11:07:49.187Z,1013.07
2018-12-03T11:09:42.243Z,1013.06
2018-12-03T11:10:42.126Z,1013.10
2018-12-03T11:12:35.043Z,1013.18
2018-12-03T11:13:35.054Z,1013.19
2018-12-03T11:15:28.051Z,1013.16
2018-12-03T11:16:27.986Z,1013.19
2018-12-03T11:18:20.903Z,1013.24
2018-12-03T11:19:20.918Z,1013.23
2018-12-03T11:21:14.087Z,1013.28
2018-12-03T11:22:13.848Z,1013.27
2018-12-03T11:24:06.763Z,1013.28
2018-12-03T11:25:06.777Z,1013.28
2018-12-03T11:26:59.948Z,1013.32
2018-12-03T11:27:59.713Z,1013.40
2018-12-03T11:29:52.630Z,1013.38
2018-12-03T11:30:52.662Z,1013.36
2018-12-03T11:33:08.034Z,1013.40
2018-12-03T11:33:45.572Z,1013.42
2018-12-03T11:35:38.489Z,1013.50
2018-12-03T11:36:38.502Z,1013.50
2018-12-03T11:38:37.894Z,1013.62
2018-12-03T11:39:31.439Z,1013.60
2018-12-03T11:41:24.356Z,1013.59
2018-12-03T11:42:24.364Z,1013.62
2018-12-03T11:44:21.087Z,1013.66
2018-12-03T11:45:17.298Z,1013.65
2018-12-03T11:48:41.991Z,1013.75
2018-12-03T11:49:41.831Z,1013.70
2018-12-03T11:51:35.188Z,1013.74
2018-12-03T11:52:34.778Z,1013.77
2018-12-03T11:54:28.015Z,1013.81
2018-12-03T11:55:27.703Z,1013.79
2018-12-03T11:57:20.614Z,1013.78
2018-12-03T11:58:20.635Z,1013.85
2018-12-03T12:00:14.594Z,1013.78
2018-12-03T12:01:13.559Z,1013.78
2018-12-03T12:03:07.024Z,1013.84
2018-12-03T12:04:06.487Z,1013.91
2018-12-03T12:05:59.479Z,1013.87
2018-12-03T12:06:59.424Z,1013.89
2018-12-03T12:08:52.340Z,1013.95
2018-12-03T12:09:52.352Z,1013.93
2018-12-03T12:11:45.542Z,1013.99
2018-12-03T12:12:45.286Z,1013.96
2018-12-03T12:14:38.200Z,1013.98
2018-12-03T12:15:38.215Z,1014.03
2018-12-03T12:17:31.321Z,1014.06
2018-12-03T12:18:31.143Z,1014.11
2018-12-03T12:20:24.072Z,1014.15
2018-12-03T12:21:24.080Z,1014.18
2018-12-03T12:23:17.077Z,1014.24
2018-12-03T12:24:17.002Z,1014.23
2018-12-03T12:26:09.928Z,1014.24
2018-12-03T12:27:09.944Z,1014.25
2018-12-03T12:29:03.119Z,1014.29
2018-12-03T12:30:02.868Z,1014.21
2018-12-03T12:31:56.358Z,1014.24
2018-12-03T12:32:55.805Z,1014.26
2018-12-03T12:34:48.809Z,1014.24
2018-12-03T12:35:48.733Z,1014.24
2018-12-03T12:37:41.658Z,1014.31
2018-12-03T12:38:41.718Z,1014.30
2018-12-03T12:40:34.755Z,1014.35
2018-12-03T12:41:34.594Z,1014.35
2018-12-03T12:43:27.508Z,1014.28
2018-12-03T12:44:27.522Z,1014.33
2018-12-03T12:46:20.703Z,1014.37
2018-12-03T12:47:20.455Z,1014.36
2018-12-03T12:49:13.406Z,1014.35
2018-12-03T12:50:13.383Z,1014.39
2018-12-03T12:52:11.965Z,1014.41
2018-12-03T12:53:06.320Z,1014.38
2018-12-03T12:54:59.234Z,1014.42
2018-12-03T12:55:59.244Z,1014.41
2018-12-03T12:57:52.337Z,1014.39
2018-12-03T12:58:52.174Z,1014.43
2018-12-03T13:00:45.091Z,1014.46
2018-12-03T13:01:45.105Z,1014.40
2018-12-03T13:03:38.178Z,1014.39
2018-12-03T13:04:38.032Z,1014.40
2018-12-03T13:06:30.954Z,1014.42
2018-12-03T13:07:30.972Z,1014.46
2018-12-03T13:09:24.059Z,1014.46
2018-12-03T13:10:23.899Z,1014.50
2018-12-03T13:12:16.828Z,1014.57
2018-12-03T13:13:16.831Z,1014.52
2018-12-03T13:15:09.990Z,1014.56
2018-12-03T13:16:09.774Z,1014.64
2018-12-03T13:18:02.687Z,1014.56
2018-12-03T13:19:02.695Z,1014.64
2018-12-03T13:21:06.761Z,1014.63
2018-12-03T13:21:55.622Z,1014.64
2018-12-03T13:23:48.542Z,1014.72
2018-12-03T13:24:48.567Z,1014.71
2018-12-03T13:26:41.746Z,1014.74
2018-12-03T13:27:41.481Z,1014.72
2018-12-03T13:29:34.952Z,1014.80
2018-12-03T13:30:34.415Z,1014.75
2018-12-03T13:32:27.503Z,1014.75
2018-12-03T13:33:27.345Z,1014.81
2018-12-03T13:35:20.254Z,1014.80
2018-12-03T13:36:20.276Z,1014.92
2018-12-03T13:38:13.454Z,1014.89
2018-12-03T13:39:13.281Z,1014.87
2018-12-03T13:41:06.668Z,1015.01
2018-12-03T13:42:06.139Z,1014.98
2018-12-03T13:43:59.316Z,1015.03
2018-12-03T13:44:59.062Z,1014.99
2018-12-03T13:46:51.980Z,1014.97
2018-12-03T13:47:51.990Z,1014.88
2018-12-03T13:49:45.167Z,1014.97
2018-12-03T13:50:44.918Z,1015.01
2018-12-03T13:52:37.852Z,1015.02
2018-12-03T13:53:37.857Z,1014.97
2018-12-03T13:55:31.044Z,1014.93
2018-12-03T13:56:30.793Z,1014.89
2018-12-03T13:58:23.710Z,1014.89
2018-12-03T13:59:23.712Z,1014.88
2018-12-03T14:01:16.800Z,1014.90
2018-12-03T14:02:16.639Z,1014.89
2018-12-03T14:04:09.754Z,1014.94
2018-12-03T14:05:09.775Z,1014.96
2018-12-03T14:07:02.770Z,1015.00
2018-12-03T14:08:02.702Z,1014.97
2018-12-03T14:09:55.674Z,1015.02
2018-12-03T14:10:55.627Z,1015.02
2018-12-03T14:12:49.594Z,1015.05
2018-12-03T14:13:48.561Z,1015.04
2018-12-03T14:15:41.469Z,1015.03
2018-12-03T14:16:42.778Z,1015.02
2018-12-03T14:18:34.791Z,1015.07
2018-12-03T14:19:34.677Z,1015.00
2018-12-03T14:21:27.589Z,1015.09
2018-12-03T14:22:27.558Z,1015.08
2018-12-03T14:24:21.521Z,1015.15
2018-12-03T14:25:20.491Z,1015.14
2018-12-03T14:27:13.974Z,1015.14
2018-12-03T14:28:13.610Z,1015.17
2018-12-03T14:30:11.267Z,1015.08
2018-12-03T14:31:06.546Z,1015.10
2018-12-03T14:32:59.466Z,1015.11
2018-12-03T14:33:59.475Z,1015.09
2018-12-03T14:35:52.653Z,1015.04
2018-12-03T14:36:52.399Z,1015.07
2018-12-03T14:38:45.327Z,1015.08
2018-12-03T14:39:45.341Z,1015.10
2018-12-03T14:41:38.430Z,1015.06
2018-12-03T14:42:38.270Z,1015.06
2018-12-03T14:44:31.389Z,1015.02
2018-12-03T14:45:31.398Z,1015.05
2018-12-03T14:47:24.642Z,1015.10
2018-12-03T14:48:24.333Z,1015.04
2018-12-03T14:50:17.802Z,1015.09
2018-12-03T14:51:17.260Z,1015.11
2018-12-03T14:53:10.379Z,1015.09
2018-12-03T14:54:10.187Z,1015.15
2018-12-03T14:56:03.112Z,1015.10
2018-12-03T14:57:03.114Z,1015.12
2018-12-03T14:58:56.366Z,1015.09
2018-12-03T14:59:56.086Z,1015.15
2018-12-03T15:01:48.963Z,1015.16
2018-12-03T15:02:48.971Z,1015.22
2018-12-03T15:04:42.055Z,1015.24
2018-12-03T15:05:41.901Z,1015.28
2018-12-03T15:07:34.825Z,1015.27
2018-12-03T15:08:34.834Z,1015.29
2018-12-03T15:10:28.059Z,1015.35
2018-12-03T15:11:27.763Z,1015.37
2018-12-03T15:13:20.678Z,1015.39
2018-12-03T15:14:20.692Z,1015.34
2018-12-03T15:16:13.699Z,1015.38
2018-12-03T15:17:13.620Z,1015.39
2018-12-03T15:19:11.488Z,1015.39
2018-12-03T15:20:06.555Z,1015.46
2018-12-03T15:21:59.755Z,1015.43
2018-12-03T15:22:59.480Z,1015.41
2018-12-03T15:24:52.453Z,1015.39
2018-12-03T15:25:52.458Z,1015.32
2018-12-03T15:27:45.843Z,1015.26
2018-12-03T15:28:45.387Z,1015.20
2018-12-03T15:30:38.504Z,1015.20
2018-12-03T15:31:38.523Z,1015.18
2018-12-03T15:33:31.697Z,1015.22
2018-12-03T15:34:31.450Z,1015.22
2018-12-03T15:36:24.378Z,1015.16
2018-12-03T15:37:24.377Z,1015.20
2018-12-03T15:39:17.631Z,1015.20
2018-12-03T15:40:17.324Z,1015.14
2018-12-03T15:42:10.790Z,1015.16
2018-12-03T15:43:10.232Z,1015.14
2018-12-03T15:45:30.309Z,1015.18
2018-12-03T15:46:03.165Z,1015.13
2018-12-03T15:47:56.080Z,1015.18
2018-12-03T15:48:56.091Z,1015.20
2018-12-03T15:50:49.837Z,1015.18
2018-12-03T15:51:49.027Z,1015.22
2018-12-03T15:53:41.963Z,1015.20
2018-12-03T15:54:41.978Z,1015.20
2018-12-03T15:56:39.629Z,1015.21
2018-12-03T15:57:34.909Z,1015.20
2018-12-03T15:59:27.823Z,1015.27
2018-12-03T16:00:27.834Z,1015.26
2018-12-03T16:02:35.490Z,1015.23
2018-12-03T16:03:20.768Z,1015.21
2018-12-03T16:05:13.685Z,1015.20
2018-12-03T16:06:13.699Z,1015.19
2018-12-03T16:08:17.767Z,1015.17
2018-12-03T16:09:06.628Z,1015.21
2018-12-03T16:11:00.529Z,1015.16
2018-12-03T16:12:00.545Z,1015.17
2018-12-03T16:13:54.193Z,1015.11
2018-12-03T16:14:53.469Z,1015.13
2018-12-03T16:16:46.935Z,1015.15
2018-12-03T16:17:46.408Z,1015.12
2018-12-03T16:19:39.398Z,1015.15
2018-12-03T16:20:39.327Z,1015.12
2018-12-03T16:22:32.809Z,1015.10
2018-12-03T16:23:32.266Z,1015.06
2018-12-03T16:25:25.447Z,1015.06
2018-12-03T16:26:25.183Z,1015.06
2018-12-03T16:28:18.097Z,1015.04
2018-12-03T16:29:18.110Z,1015.05
2018-12-03T16:31:23.084Z,1015.10
2018-12-03T16:32:11.048Z,1015.04
2018-12-03T16:34:03.959Z,1014.98
2018-12-03T16:35:03.972Z,1014.98
2018-12-03T16:36:57.159Z,1014.96
2018-12-03T16:37:56.911Z,1014.94
2018-12-03T16:39:49.816Z,1014.95
2018-12-03T16:40:49.831Z,1014.97
2018-12-03T16:42:44.471Z,1014.93
2018-12-03T16:43:42.766Z,1014.92
2018-12-03T16:45:35.771Z,1014.89
2018-12-03T16:46:35.691Z,1014.90
2018-12-03T16:48:28.874Z,1014.87
2018-12-03T16:49:28.628Z,1014.87
2018-12-03T16:51:21.558Z,1014.87
2018-12-03T16:52:21.551Z,1014.87
2018-12-03T16:54:14.650Z,1014.88
2018-12-03T16:55:14.505Z,1014.86
2018-12-03T16:57:07.422Z,1014.89
2018-12-03T16:58:07.408Z,1014.84
2018-12-03T17:00:00.617Z,1014.84
2018-12-03T17:01:00.404Z,1014.84
2018-12-03T17:02:53.255Z,1014.82
2018-12-03T17:03:53.266Z,1014.82
2018-12-03T17:05:47.232Z,1014.82
2018-12-03T17:06:46.194Z,1014.81
2018-12-03T17:08:39.157Z,1014.82
2018-12-03T17:09:39.186Z,1014.82
2018-12-03T17:11:32.908Z,1014.79
2018-12-03T17:12:32.099Z,1014.82
2018-12-03T17:14:25.565Z,1014.87
2018-12-03T17:15:25.029Z,1014.90
2018-12-03T17:17:18.032Z,1014.84
2018-12-03T17:18:17.958Z,1014.87
2018-12-03T17:20:10.875Z,1014.85
2018-12-03T17:21:10.888Z,1014.85
2018-12-03T17:23:04.862Z,1014.85
2018-12-03T17:24:03.821Z,1014.86
2018-12-03T17:25:56.740Z,1014.83
2018-12-03T17:26:56.756Z,1014.84
2018-12-03T17:28:50.724Z,1014.84